sensor_id;sensor_type;location;lat;lon;timestamp;temperature;humidity
12885;DHT22;6510;51.362;7.370;2022-11-20T00:01:22;-1.40;99.90
12885;DHT22;6510;51.362;7.370;2022-11-20T00:03:49;-1.30;99.90
12885;DHT22;6510;51.362;7.370;2022-11-20T00:06:17;-1.30;99.90
12885;DHT22;6510;51.362;7.370;2022-11-20T00:08:44;-1.30;99.90
12885;DHT22;6510;51.362;7.370;2022-11-20T00:11:16;-1.30;99.90
12885;DHT22;6510;51.362;7.370;2022-11-20T00:13:43;-1.30;99.90
12885;DHT22;6510;51.362;7.370;2022-11-20T00:16:11;-1.20;99.90
12885;DHT22;6510;51.362;7.370;2022-11-20T00:18:37;-1.20;99.90
12885;DHT22;6510;51.362;7.370;2022-11-20T00:21:09;-1.20;99.90
12885;DHT22;6510;51.362;7.370;2022-11-20T00:23:35;-1.30;99.90
12885;DHT22;6510;51.362;7.370;2022-11-20T00:26:05;-1.20;99.90
12885;DHT22;6510;51.362;7.370;2022-11-20T00:28:31;-1.00;99.90
12885;DHT22;6510;51.362;7.370;2022-11-20T00:31:04;-1.00;99.90
12885;DHT22;6510;51.362;7.370;2022-11-20T00:33:31;-0.80;99.90
12885;DHT22;6510;51.362;7.370;2022-11-20T00:36:04;-0.60;99.90
12885;DHT22;6510;51.362;7.370;2022-11-20T00:38:31;-0.60;99.90
12885;DHT22;6510;51.362;7.370;2022-11-20T00:41:08;-0.60;99.90
12885;DHT22;6510;51.362;7.370;2022-11-20T00:43:35;-0.50;99.90
12885;DHT22;6510;51.362;7.370;2022-11-20T00:46:05;-0.70;99.90
12885;DHT22;6510;51.362;7.370;2022-11-20T00:48:31;-0.70;99.90
12885;DHT22;6510;51.362;7.370;2022-11-20T00:50:58;-0.50;99.90
12885;DHT22;6510;51.362;7.370;2022-11-20T00:53:24;-0.40;99.90
12885;DHT22;6510;51.362;7.370;2022-11-20T00:56:04;-0.30;99.90
12885;DHT22;6510;51.362;7.370;2022-11-20T00:58:33;-0.10;99.90
12885;DHT22;6510;51.362;7.370;2022-11-20T01:01:21;-0.10;99.90
12885;DHT22;6510;51.362;7.370;2022-11-20T01:03:50;-0.20;99.90
12885;DHT22;6510;51.362;7.370;2022-11-20T01:06:21;-0.20;99.90
12885;DHT22;6510;51.362;7.370;2022-11-20T01:08:48;0.00;99.90
12885;DHT22;6510;51.362;7.370;2022-11-20T01:11:19;-0.10;99.90
12885;DHT22;6510;51.362;7.370;2022-11-20T01:13:49;-0.10;99.90
12885;DHT22;6510;51.362;7.370;2022-11-20T01:16:18;-0.10;99.90
12885;DHT22;6510;51.362;7.370;2022-11-20T01:18:46;-0.10;99.90
12885;DHT22;6510;51.362;7.370;2022-11-20T01:21:22;0.00;99.90
12885;DHT22;6510;51.362;7.370;2022-11-20T01:23:48;0.10;99.90
12885;DHT22;6510;51.362;7.370;2022-11-20T01:26:23;0.00;99.90
12885;DHT22;6510;51.362;7.370;2022-11-20T01:28:49;-0.10;99.90
12885;DHT22;6510;51.362;7.370;2022-11-20T01:31:20;-0.10;99.90
12885;DHT22;6510;51.362;7.370;2022-11-20T01:33:48;0.00;99.90
12885;DHT22;6510;51.362;7.370;2022-11-20T01:36:15;0.00;99.90
12885;DHT22;6510;51.362;7.370;2022-11-20T01:38:42;0.10;99.90
12885;DHT22;6510;51.362;7.370;2022-11-20T01:41:09;0.10;99.90
12885;DHT22;6510;51.362;7.370;2022-11-20T01:43:35;0.20;99.90
12885;DHT22;6510;51.362;7.370;2022-11-20T01:48:36;0.40;99.90
12885;DHT22;6510;51.362;7.370;2022-11-20T01:51:04;0.40;99.90
12885;DHT22;6510;51.362;7.370;2022-11-20T01:53:34;0.40;99.90
12885;DHT22;6510;51.362;7.370;2022-11-20T01:56:03;0.40;99.90
12885;DHT22;6510;51.362;7.370;2022-11-20T01:58:34;0.20;99.90
12885;DHT22;6510;51.362;7.370;2022-11-20T02:01:01;0.20;99.90
12885;DHT22;6510;51.362;7.370;2022-11-20T02:03:27;0.30;99.90
12885;DHT22;6510;51.362;7.370;2022-11-20T02:08:58;0.30;99.90
12885;DHT22;6510;51.362;7.370;2022-11-20T02:11:24;0.30;99.90
12885;DHT22;6510;51.362;7.370;2022-11-20T02:13:49;0.20;99.90
12885;DHT22;6510;51.362;7.370;2022-11-20T02:16:24;0.00;99.90
12885;DHT22;6510;51.362;7.370;2022-11-20T02:18:51;0.00;99.90
12885;DHT22;6510;51.362;7.370;2022-11-20T02:21:45;0.10;99.90
12885;DHT22;6510;51.362;7.370;2022-11-20T02:24:18;0.10;99.90
12885;DHT22;6510;51.362;7.370;2022-11-20T02:27:06;0.20;99.90
12885;DHT22;6510;51.362;7.370;2022-11-20T02:29:44;0.10;99.90
12885;DHT22;6510;51.362;7.370;2022-11-20T02:32:29;0.20;99.90
12885;DHT22;6510;51.362;7.370;2022-11-20T02:34:55;0.20;99.90
12885;DHT22;6510;51.362;7.370;2022-11-20T02:37:21;0.20;99.90
12885;DHT22;6510;51.362;7.370;2022-11-20T02:39:49;0.20;99.90
12885;DHT22;6510;51.362;7.370;2022-11-20T02:42:15;0.30;99.90
12885;DHT22;6510;51.362;7.370;2022-11-20T02:44:41;0.30;99.90
12885;DHT22;6510;51.362;7.370;2022-11-20T02:47:07;0.40;99.90
12885;DHT22;6510;51.362;7.370;2022-11-20T02:49:33;0.30;99.90
12885;DHT22;6510;51.362;7.370;2022-11-20T02:51:59;0.10;99.90
12885;DHT22;6510;51.362;7.370;2022-11-20T02:54:25;0.00;99.90
12885;DHT22;6510;51.362;7.370;2022-11-20T02:56:51;0.10;99.90
12885;DHT22;6510;51.362;7.370;2022-11-20T02:59:16;0.10;99.90
12885;DHT22;6510;51.362;7.370;2022-11-20T03:01:42;0.20;99.90
12885;DHT22;6510;51.362;7.370;2022-11-20T03:04:08;0.30;99.90
12885;DHT22;6510;51.362;7.370;2022-11-20T03:06:34;0.30;99.90
12885;DHT22;6510;51.362;7.370;2022-11-20T03:08:59;0.40;99.90
12885;DHT22;6510;51.362;7.370;2022-11-20T03:11:25;0.40;99.90
12885;DHT22;6510;51.362;7.370;2022-11-20T03:13:51;0.40;99.90
12885;DHT22;6510;51.362;7.370;2022-11-20T03:16:19;0.40;99.90
12885;DHT22;6510;51.362;7.370;2022-11-20T03:18:45;0.50;99.90
12885;DHT22;6510;51.362;7.370;2022-11-20T03:21:12;0.40;99.90
12885;DHT22;6510;51.362;7.370;2022-11-20T03:23:38;0.50;99.90
12885;DHT22;6510;51.362;7.370;2022-11-20T03:26:18;0.50;99.90
12885;DHT22;6510;51.362;7.370;2022-11-20T03:28:50;0.50;99.90
12885;DHT22;6510;51.362;7.370;2022-11-20T03:31:18;0.60;99.90
12885;DHT22;6510;51.362;7.370;2022-11-20T03:33:44;0.50;99.90
12885;DHT22;6510;51.362;7.370;2022-11-20T03:36:12;0.50;99.90
12885;DHT22;6510;51.362;7.370;2022-11-20T03:38:38;0.70;99.90
12885;DHT22;6510;51.362;7.370;2022-11-20T03:41:09;0.70;99.90
12885;DHT22;6510;51.362;7.370;2022-11-20T03:43:35;0.70;99.90
12885;DHT22;6510;51.362;7.370;2022-11-20T03:46:02;0.70;99.90
12885;DHT22;6510;51.362;7.370;2022-11-20T03:48:28;0.70;99.90
12885;DHT22;6510;51.362;7.370;2022-11-20T03:51:06;0.60;99.90
12885;DHT22;6510;51.362;7.370;2022-11-20T03:53:31;0.70;99.90
12885;DHT22;6510;51.362;7.370;2022-11-20T03:55:57;0.50;99.90
12885;DHT22;6510;51.362;7.370;2022-11-20T03:58:23;0.50;99.90
12885;DHT22;6510;51.362;7.370;2022-11-20T04:00:48;0.40;99.90
12885;DHT22;6510;51.362;7.370;2022-11-20T04:03:14;0.40;99.90
12885;DHT22;6510;51.362;7.370;2022-11-20T04:05:40;0.30;99.90
12885;DHT22;6510;51.362;7.370;2022-11-20T04:08:06;0.20;99.90
12885;DHT22;6510;51.362;7.370;2022-11-20T04:10:32;0.30;99.90
12885;DHT22;6510;51.362;7.370;2022-11-20T04:12:57;0.30;99.90
12885;DHT22;6510;51.362;7.370;2022-11-20T04:15:23;0.40;99.90
12885;DHT22;6510;51.362;7.370;2022-11-20T04:17:48;0.40;99.90
12885;DHT22;6510;51.362;7.370;2022-11-20T04:20:14;0.30;99.90
12885;DHT22;6510;51.362;7.370;2022-11-20T04:22:40;0.30;99.90
12885;DHT22;6510;51.362;7.370;2022-11-20T04:25:05;0.30;99.90
12885;DHT22;6510;51.362;7.370;2022-11-20T04:27:31;0.30;99.90
12885;DHT22;6510;51.362;7.370;2022-11-20T04:29:57;0.30;99.90
12885;DHT22;6510;51.362;7.370;2022-11-20T04:32:22;0.40;99.90
12885;DHT22;6510;51.362;7.370;2022-11-20T04:34:48;0.40;99.90
12885;DHT22;6510;51.362;7.370;2022-11-20T04:37:13;0.40;99.90
12885;DHT22;6510;51.362;7.370;2022-11-20T04:39:39;0.50;99.90
12885;DHT22;6510;51.362;7.370;2022-11-20T04:42:05;0.60;99.90
12885;DHT22;6510;51.362;7.370;2022-11-20T04:44:49;0.80;99.90
12885;DHT22;6510;51.362;7.370;2022-11-20T04:47:14;0.90;99.90
12885;DHT22;6510;51.362;7.370;2022-11-20T04:49:40;0.80;99.90
12885;DHT22;6510;51.362;7.370;2022-11-20T04:52:05;0.90;99.90
12885;DHT22;6510;51.362;7.370;2022-11-20T04:54:31;0.80;99.90
12885;DHT22;6510;51.362;7.370;2022-11-20T04:56:56;0.80;99.90
12885;DHT22;6510;51.362;7.370;2022-11-20T04:59:22;0.90;99.90
12885;DHT22;6510;51.362;7.370;2022-11-20T05:01:48;0.90;99.90
12885;DHT22;6510;51.362;7.370;2022-11-20T05:04:13;0.90;99.90
12885;DHT22;6510;51.362;7.370;2022-11-20T05:06:39;0.90;99.90
12885;DHT22;6510;51.362;7.370;2022-11-20T05:09:04;0.90;99.90
12885;DHT22;6510;51.362;7.370;2022-11-20T05:11:31;0.90;99.90
12885;DHT22;6510;51.362;7.370;2022-11-20T05:13:58;0.90;99.90
12885;DHT22;6510;51.362;7.370;2022-11-20T05:16:24;0.90;99.90
12885;DHT22;6510;51.362;7.370;2022-11-20T05:18:51;0.90;99.90
12885;DHT22;6510;51.362;7.370;2022-11-20T05:21:17;0.90;99.90
12885;DHT22;6510;51.362;7.370;2022-11-20T05:23:44;0.90;99.90
12885;DHT22;6510;51.362;7.370;2022-11-20T05:26:21;0.90;99.90
12885;DHT22;6510;51.362;7.370;2022-11-20T05:28:47;0.90;99.90
12885;DHT22;6510;51.362;7.370;2022-11-20T05:31:15;1.00;99.90
12885;DHT22;6510;51.362;7.370;2022-11-20T05:33:42;0.90;99.90
12885;DHT22;6510;51.362;7.370;2022-11-20T05:36:09;0.90;99.90
12885;DHT22;6510;51.362;7.370;2022-11-20T05:38:35;0.90;99.90
12885;DHT22;6510;51.362;7.370;2022-11-20T05:41:11;0.90;99.90
12885;DHT22;6510;51.362;7.370;2022-11-20T05:43:39;0.90;99.90
12885;DHT22;6510;51.362;7.370;2022-11-20T05:46:07;0.90;99.90
12885;DHT22;6510;51.362;7.370;2022-11-20T05:48:34;0.80;99.90
12885;DHT22;6510;51.362;7.370;2022-11-20T05:51:01;0.90;99.90
12885;DHT22;6510;51.362;7.370;2022-11-20T05:53:27;0.90;99.90
12885;DHT22;6510;51.362;7.370;2022-11-20T05:56:01;0.90;99.90
12885;DHT22;6510;51.362;7.370;2022-11-20T05:58:27;0.90;99.90
12885;DHT22;6510;51.362;7.370;2022-11-20T06:00:52;0.80;99.90
12885;DHT22;6510;51.362;7.370;2022-11-20T06:03:18;0.80;99.90
12885;DHT22;6510;51.362;7.370;2022-11-20T06:05:44;0.80;99.90
12885;DHT22;6510;51.362;7.370;2022-11-20T06:08:09;0.80;99.90
12885;DHT22;6510;51.362;7.370;2022-11-20T06:10:35;0.90;99.90
12885;DHT22;6510;51.362;7.370;2022-11-20T06:13:00;0.80;99.90
12885;DHT22;6510;51.362;7.370;2022-11-20T06:15:26;0.80;99.90
12885;DHT22;6510;51.362;7.370;2022-11-20T06:17:53;0.80;99.90
12885;DHT22;6510;51.362;7.370;2022-11-20T06:20:19;0.90;99.90
12885;DHT22;6510;51.362;7.370;2022-11-20T06:22:45;0.90;99.90
12885;DHT22;6510;51.362;7.370;2022-11-20T06:25:11;0.80;99.90
12885;DHT22;6510;51.362;7.370;2022-11-20T06:27:36;0.90;99.90
12885;DHT22;6510;51.362;7.370;2022-11-20T06:30:03;0.80;99.90
12885;DHT22;6510;51.362;7.370;2022-11-20T06:32:29;0.80;99.90
12885;DHT22;6510;51.362;7.370;2022-11-20T06:34:55;0.70;99.90
12885;DHT22;6510;51.362;7.370;2022-11-20T06:37:20;0.80;99.90
12885;DHT22;6510;51.362;7.370;2022-11-20T06:39:46;0.70;99.90
12885;DHT22;6510;51.362;7.370;2022-11-20T06:42:11;0.70;99.90
12885;DHT22;6510;51.362;7.370;2022-11-20T06:44:37;0.80;99.90
12885;DHT22;6510;51.362;7.370;2022-11-20T06:47:03;0.70;99.90
12885;DHT22;6510;51.362;7.370;2022-11-20T06:49:28;0.60;99.90
12885;DHT22;6510;51.362;7.370;2022-11-20T06:51:54;0.60;99.90
12885;DHT22;6510;51.362;7.370;2022-11-20T06:54:19;0.60;99.90
12885;DHT22;6510;51.362;7.370;2022-11-20T06:56:48;0.60;99.90
12885;DHT22;6510;51.362;7.370;2022-11-20T06:59:14;0.60;99.90
12885;DHT22;6510;51.362;7.370;2022-11-20T07:01:40;0.60;99.90
12885;DHT22;6510;51.362;7.370;2022-11-20T07:04:05;0.50;99.90
12885;DHT22;6510;51.362;7.370;2022-11-20T07:06:31;0.40;99.90
12885;DHT22;6510;51.362;7.370;2022-11-20T07:08:57;0.40;99.90
12885;DHT22;6510;51.362;7.370;2022-11-20T07:11:25;0.40;99.90
12885;DHT22;6510;51.362;7.370;2022-11-20T07:13:51;0.30;99.90
12885;DHT22;6510;51.362;7.370;2022-11-20T07:16:16;0.30;99.90
12885;DHT22;6510;51.362;7.370;2022-11-20T07:18:42;0.20;99.90
12885;DHT22;6510;51.362;7.370;2022-11-20T07:21:09;0.20;99.90
12885;DHT22;6510;51.362;7.370;2022-11-20T07:23:35;0.20;99.90
12885;DHT22;6510;51.362;7.370;2022-11-20T07:26:08;0.20;99.90
12885;DHT22;6510;51.362;7.370;2022-11-20T07:28:34;0.20;99.90
12885;DHT22;6510;51.362;7.370;2022-11-20T07:31:02;0.20;99.90
12885;DHT22;6510;51.362;7.370;2022-11-20T07:33:28;0.30;99.90
12885;DHT22;6510;51.362;7.370;2022-11-20T07:35:53;0.30;99.90
12885;DHT22;6510;51.362;7.370;2022-11-20T07:38:26;0.30;99.90
12885;DHT22;6510;51.362;7.370;2022-11-20T07:40:56;0.40;99.90
12885;DHT22;6510;51.362;7.370;2022-11-20T07:43:26;0.50;99.90
12885;DHT22;6510;51.362;7.370;2022-11-20T07:45:51;0.50;99.90
12885;DHT22;6510;51.362;7.370;2022-11-20T07:48:17;0.50;99.90
12885;DHT22;6510;51.362;7.370;2022-11-20T07:50:42;0.60;99.90
12885;DHT22;6510;51.362;7.370;2022-11-20T07:53:08;0.60;99.90
12885;DHT22;6510;51.362;7.370;2022-11-20T07:55:34;0.60;99.90
12885;DHT22;6510;51.362;7.370;2022-11-20T07:57:59;0.60;99.90
12885;DHT22;6510;51.362;7.370;2022-11-20T08:00:26;0.60;99.90
12885;DHT22;6510;51.362;7.370;2022-11-20T08:02:52;1.10;99.90
12885;DHT22;6510;51.362;7.370;2022-11-20T08:05:18;0.90;99.90
12885;DHT22;6510;51.362;7.370;2022-11-20T08:07:44;0.90;99.90
12885;DHT22;6510;51.362;7.370;2022-11-20T08:10:12;1.00;99.90
12885;DHT22;6510;51.362;7.370;2022-11-20T08:12:52;1.20;99.90
12885;DHT22;6510;51.362;7.370;2022-11-20T08:15:37;1.20;99.90
12885;DHT22;6510;51.362;7.370;2022-11-20T08:18:06;1.20;99.90
12885;DHT22;6510;51.362;7.370;2022-11-20T08:20:32;1.40;99.90
12885;DHT22;6510;51.362;7.370;2022-11-20T08:23:03;1.40;99.90
12885;DHT22;6510;51.362;7.370;2022-11-20T08:25:31;2.10;99.90
12885;DHT22;6510;51.362;7.370;2022-11-20T08:28:01;2.50;99.90
12885;DHT22;6510;51.362;7.370;2022-11-20T08:30:28;3.50;99.90
12885;DHT22;6510;51.362;7.370;2022-11-20T08:32:54;3.90;99.90
12885;DHT22;6510;51.362;7.370;2022-11-20T08:35:21;3.90;99.90
12885;DHT22;6510;51.362;7.370;2022-11-20T08:37:49;3.50;99.90
12885;DHT22;6510;51.362;7.370;2022-11-20T08:40:15;2.80;99.90
12885;DHT22;6510;51.362;7.370;2022-11-20T08:42:48;2.80;99.90
12885;DHT22;6510;51.362;7.370;2022-11-20T08:45:15;2.90;99.90
12885;DHT22;6510;51.362;7.370;2022-11-20T08:47:43;3.20;99.90
12885;DHT22;6510;51.362;7.370;2022-11-20T08:50:10;3.30;99.90
12885;DHT22;6510;51.362;7.370;2022-11-20T08:52:36;3.30;99.90
12885;DHT22;6510;51.362;7.370;2022-11-20T08:55:02;4.00;99.90
12885;DHT22;6510;51.362;7.370;2022-11-20T08:57:28;3.70;99.90
12885;DHT22;6510;51.362;7.370;2022-11-20T08:59:53;3.50;99.90
12885;DHT22;6510;51.362;7.370;2022-11-20T09:02:19;3.40;99.90
12885;DHT22;6510;51.362;7.370;2022-11-20T09:04:44;3.10;99.90
12885;DHT22;6510;51.362;7.370;2022-11-20T09:07:10;4.40;99.90
12885;DHT22;6510;51.362;7.370;2022-11-20T09:09:36;4.20;99.90
12885;DHT22;6510;51.362;7.370;2022-11-20T09:12:01;4.80;99.90
12885;DHT22;6510;51.362;7.370;2022-11-20T09:14:27;4.50;99.90
12885;DHT22;6510;51.362;7.370;2022-11-20T09:16:57;5.10;99.90
12885;DHT22;6510;51.362;7.370;2022-11-20T09:19:26;5.00;99.90
12885;DHT22;6510;51.362;7.370;2022-11-20T09:21:52;4.10;99.90
12885;DHT22;6510;51.362;7.370;2022-11-20T09:24:18;3.60;99.90
12885;DHT22;6510;51.362;7.370;2022-11-20T09:26:44;3.40;99.90
12885;DHT22;6510;51.362;7.370;2022-11-20T09:29:10;3.40;99.90
12885;DHT22;6510;51.362;7.370;2022-11-20T09:31:36;3.30;99.90
12885;DHT22;6510;51.362;7.370;2022-11-20T09:34:01;3.30;99.90
12885;DHT22;6510;51.362;7.370;2022-11-20T09:36:27;3.40;99.90
12885;DHT22;6510;51.362;7.370;2022-11-20T09:38:53;3.20;99.90
12885;DHT22;6510;51.362;7.370;2022-11-20T09:46:58;2.80;99.90
12885;DHT22;6510;51.362;7.370;2022-11-20T09:55:02;2.90;99.90
12885;DHT22;6510;51.362;7.370;2022-11-20T09:57:37;3.00;99.90
12885;DHT22;6510;51.362;7.370;2022-11-20T10:00:06;2.70;99.90
12885;DHT22;6510;51.362;7.370;2022-11-20T10:02:42;3.00;99.90
12885;DHT22;6510;51.362;7.370;2022-11-20T10:08:21;3.00;99.90
12885;DHT22;6510;51.362;7.370;2022-11-20T10:11:00;3.10;99.90
12885;DHT22;6510;51.362;7.370;2022-11-20T10:19:27;3.00;99.90
12885;DHT22;6510;51.362;7.370;2022-11-20T10:30:21;3.10;99.90
12885;DHT22;6510;51.362;7.370;2022-11-20T10:32:53;3.10;99.90
12885;DHT22;6510;51.362;7.370;2022-11-20T10:35:35;3.10;99.90
12885;DHT22;6510;51.362;7.370;2022-11-20T10:38:07;3.10;99.90
12885;DHT22;6510;51.362;7.370;2022-11-20T10:40:43;3.30;99.90
12885;DHT22;6510;51.362;7.370;2022-11-20T10:43:20;3.50;99.90
12885;DHT22;6510;51.362;7.370;2022-11-20T10:46:05;6.80;99.90
12885;DHT22;6510;51.362;7.370;2022-11-20T10:48:33;6.70;99.90
12885;DHT22;6510;51.362;7.370;2022-11-20T10:53:33;4.10;99.90
12885;DHT22;6510;51.362;7.370;2022-11-20T11:01:49;4.10;99.90
12885;DHT22;6510;51.362;7.370;2022-11-20T11:04:37;3.90;99.90
12885;DHT22;6510;51.362;7.370;2022-11-20T11:07:17;3.70;99.90
12885;DHT22;6510;51.362;7.370;2022-11-20T11:09:54;3.50;99.90
12885;DHT22;6510;51.362;7.370;2022-11-20T11:12:42;3.50;99.90
12885;DHT22;6510;51.362;7.370;2022-11-20T11:15:24;3.40;99.90
12885;DHT22;6510;51.362;7.370;2022-11-20T11:17:50;3.30;99.90
12885;DHT22;6510;51.362;7.370;2022-11-20T11:20:20;3.30;99.90
12885;DHT22;6510;51.362;7.370;2022-11-20T11:27:53;3.30;99.90
12885;DHT22;6510;51.362;7.370;2022-11-20T11:30:21;3.30;99.90
12885;DHT22;6510;51.362;7.370;2022-11-20T11:32:49;3.30;99.90
12885;DHT22;6510;51.362;7.370;2022-11-20T11:35:25;3.40;99.90
12885;DHT22;6510;51.362;7.370;2022-11-20T11:38:39;3.40;99.90
12885;DHT22;6510;51.362;7.370;2022-11-20T11:40:39;3.50;99.90
12885;DHT22;6510;51.362;7.370;2022-11-20T11:43:16;3.50;99.90
12885;DHT22;6510;51.362;7.370;2022-11-20T11:46:02;3.40;99.90
12885;DHT22;6510;51.362;7.370;2022-11-20T11:48:29;3.60;99.90
12885;DHT22;6510;51.362;7.370;2022-11-20T11:50:55;3.80;99.90
12885;DHT22;6510;51.362;7.370;2022-11-20T11:53:22;3.50;99.90
12885;DHT22;6510;51.362;7.370;2022-11-20T11:55:54;3.60;99.90
12885;DHT22;6510;51.362;7.370;2022-11-20T11:58:47;3.60;99.90
12885;DHT22;6510;51.362;7.370;2022-11-20T12:07:07;3.70;99.90
12885;DHT22;6510;51.362;7.370;2022-11-20T12:09:43;3.70;99.90
12885;DHT22;6510;51.362;7.370;2022-11-20T12:12:23;3.60;99.90
12885;DHT22;6510;51.362;7.370;2022-11-20T12:14:53;3.70;99.90
12885;DHT22;6510;51.362;7.370;2022-11-20T12:17:20;3.80;99.90
12885;DHT22;6510;51.362;7.370;2022-11-20T12:19:46;3.80;99.90
12885;DHT22;6510;51.362;7.370;2022-11-20T12:25:20;3.60;99.90
12885;DHT22;6510;51.362;7.370;2022-11-20T12:33:36;3.50;99.90
12885;DHT22;6510;51.362;7.370;2022-11-20T12:39:35;3.60;99.90
12885;DHT22;6510;51.362;7.370;2022-11-20T12:42:23;3.60;99.90
12885;DHT22;6510;51.362;7.370;2022-11-20T12:45:46;3.50;99.90
12885;DHT22;6510;51.362;7.370;2022-11-20T12:51:36;3.50;99.90
12885;DHT22;6510;51.362;7.370;2022-11-20T12:57:10;3.40;99.90
12885;DHT22;6510;51.362;7.370;2022-11-20T12:59:59;3.40;99.90
12885;DHT22;6510;51.362;7.370;2022-11-20T13:06:00;3.40;99.90
12885;DHT22;6510;51.362;7.370;2022-11-20T13:08:35;3.40;99.90
12885;DHT22;6510;51.362;7.370;2022-11-20T13:11:34;3.40;99.90
12885;DHT22;6510;51.362;7.370;2022-11-20T13:17:19;3.40;99.90
12885;DHT22;6510;51.362;7.370;2022-11-20T13:19:53;3.50;99.90
12885;DHT22;6510;51.362;7.370;2022-11-20T13:22:27;3.50;99.90
12885;DHT22;6510;51.362;7.370;2022-11-20T13:24:53;3.40;99.90
12885;DHT22;6510;51.362;7.370;2022-11-20T13:27:21;3.50;99.90
12885;DHT22;6510;51.362;7.370;2022-11-20T13:30:15;3.40;99.90
12885;DHT22;6510;51.362;7.370;2022-11-20T13:35:33;3.40;99.90
12885;DHT22;6510;51.362;7.370;2022-11-20T13:40:26;3.50;99.90
12885;DHT22;6510;51.362;7.370;2022-11-20T13:43:02;3.50;99.90
12885;DHT22;6510;51.362;7.370;2022-11-20T13:45:31;3.60;99.90
12885;DHT22;6510;51.362;7.370;2022-11-20T13:48:00;3.60;99.90
12885;DHT22;6510;51.362;7.370;2022-11-20T13:53:37;3.60;99.90
12885;DHT22;6510;51.362;7.370;2022-11-20T13:59:05;3.60;99.90
12885;DHT22;6510;51.362;7.370;2022-11-20T14:01:34;3.60;99.90
12885;DHT22;6510;51.362;7.370;2022-11-20T14:04:09;3.50;99.90
12885;DHT22;6510;51.362;7.370;2022-11-20T14:06:43;3.60;99.90
12885;DHT22;6510;51.362;7.370;2022-11-20T14:09:24;3.60;99.90
12885;DHT22;6510;51.362;7.370;2022-11-20T14:11:49;3.70;99.90
12885;DHT22;6510;51.362;7.370;2022-11-20T14:14:17;3.60;99.90
12885;DHT22;6510;51.362;7.370;2022-11-20T14:16:44;3.60;99.90
12885;DHT22;6510;51.362;7.370;2022-11-20T14:21:46;3.60;99.90
12885;DHT22;6510;51.362;7.370;2022-11-20T14:24:13;3.50;99.90
12885;DHT22;6510;51.362;7.370;2022-11-20T14:26:44;3.50;99.90
12885;DHT22;6510;51.362;7.370;2022-11-20T14:29:23;3.40;99.90
12885;DHT22;6510;51.362;7.370;2022-11-20T14:31:53;3.50;99.90
12885;DHT22;6510;51.362;7.370;2022-11-20T14:34:25;3.50;99.90
12885;DHT22;6510;51.362;7.370;2022-11-20T14:36:56;3.50;99.90
12885;DHT22;6510;51.362;7.370;2022-11-20T14:39:28;3.50;99.90
12885;DHT22;6510;51.362;7.370;2022-11-20T14:41:54;3.50;99.90
12885;DHT22;6510;51.362;7.370;2022-11-20T14:44:25;3.50;99.90
12885;DHT22;6510;51.362;7.370;2022-11-20T14:46:52;3.50;99.90
12885;DHT22;6510;51.362;7.370;2022-11-20T14:49:18;3.50;99.90
12885;DHT22;6510;51.362;7.370;2022-11-20T14:51:44;3.50;99.90
12885;DHT22;6510;51.362;7.370;2022-11-20T14:54:14;3.40;99.90
12885;DHT22;6510;51.362;7.370;2022-11-20T14:56:40;3.40;99.90
12885;DHT22;6510;51.362;7.370;2022-11-20T14:59:07;3.50;99.90
12885;DHT22;6510;51.362;7.370;2022-11-20T15:01:34;3.50;99.90
12885;DHT22;6510;51.362;7.370;2022-11-20T15:04:11;3.50;99.90
12885;DHT22;6510;51.362;7.370;2022-11-20T15:06:37;3.40;99.90
12885;DHT22;6510;51.362;7.370;2022-11-20T15:09:04;3.50;99.90
12885;DHT22;6510;51.362;7.370;2022-11-20T15:11:35;3.40;99.90
12885;DHT22;6510;51.362;7.370;2022-11-20T15:14:03;3.40;99.90
12885;DHT22;6510;51.362;7.370;2022-11-20T15:16:30;3.40;99.90
12885;DHT22;6510;51.362;7.370;2022-11-20T15:18:56;3.30;99.90
12885;DHT22;6510;51.362;7.370;2022-11-20T15:21:22;3.40;99.90
12885;DHT22;6510;51.362;7.370;2022-11-20T15:23:48;3.40;99.90
12885;DHT22;6510;51.362;7.370;2022-11-20T15:26:19;3.40;99.90
12885;DHT22;6510;51.362;7.370;2022-11-20T15:28:47;3.40;99.90
12885;DHT22;6510;51.362;7.370;2022-11-20T15:31:17;3.40;99.90
12885;DHT22;6510;51.362;7.370;2022-11-20T15:33:42;3.40;99.90
12885;DHT22;6510;51.362;7.370;2022-11-20T15:36:09;3.50;99.90
12885;DHT22;6510;51.362;7.370;2022-11-20T15:38:34;3.50;99.90
12885;DHT22;6510;51.362;7.370;2022-11-20T15:41:00;3.50;99.90
12885;DHT22;6510;51.362;7.370;2022-11-20T15:43:26;3.50;99.90
12885;DHT22;6510;51.362;7.370;2022-11-20T15:45:55;3.50;99.90
12885;DHT22;6510;51.362;7.370;2022-11-20T15:48:28;3.50;99.90
12885;DHT22;6510;51.362;7.370;2022-11-20T15:51:27;3.50;99.90
12885;DHT22;6510;51.362;7.370;2022-11-20T15:53:54;3.50;99.90
12885;DHT22;6510;51.362;7.370;2022-11-20T15:56:20;3.60;99.90
12885;DHT22;6510;51.362;7.370;2022-11-20T15:58:45;3.50;99.90
12885;DHT22;6510;51.362;7.370;2022-11-20T16:01:13;3.60;99.90
12885;DHT22;6510;51.362;7.370;2022-11-20T16:03:40;3.60;99.90
12885;DHT22;6510;51.362;7.370;2022-11-20T16:06:06;3.60;99.90
12885;DHT22;6510;51.362;7.370;2022-11-20T16:08:32;3.70;99.90
12885;DHT22;6510;51.362;7.370;2022-11-20T16:10:58;3.70;99.90
12885;DHT22;6510;51.362;7.370;2022-11-20T16:13:23;3.70;99.90
12885;DHT22;6510;51.362;7.370;2022-11-20T16:16:17;3.80;99.90
12885;DHT22;6510;51.362;7.370;2022-11-20T16:18:44;3.80;99.90
12885;DHT22;6510;51.362;7.370;2022-11-20T16:21:13;3.90;99.90
12885;DHT22;6510;51.362;7.370;2022-11-20T16:23:42;3.80;99.90
12885;DHT22;6510;51.362;7.370;2022-11-20T16:26:16;3.90;99.90
12885;DHT22;6510;51.362;7.370;2022-11-20T16:28:46;3.80;99.90
12885;DHT22;6510;51.362;7.370;2022-11-20T16:31:17;3.80;99.90
12885;DHT22;6510;51.362;7.370;2022-11-20T16:33:48;3.80;99.90
12885;DHT22;6510;51.362;7.370;2022-11-20T16:36:15;3.70;99.90
12885;DHT22;6510;51.362;7.370;2022-11-20T16:38:41;3.80;99.90
12885;DHT22;6510;51.362;7.370;2022-11-20T16:41:08;3.80;99.90
12885;DHT22;6510;51.362;7.370;2022-11-20T16:43:54;3.80;99.90
12885;DHT22;6510;51.362;7.370;2022-11-20T16:46:23;3.80;99.90
12885;DHT22;6510;51.362;7.370;2022-11-20T16:49:06;3.80;99.90
12885;DHT22;6510;51.362;7.370;2022-11-20T16:51:36;3.90;99.90
12885;DHT22;6510;51.362;7.370;2022-11-20T16:54:06;3.90;99.90
12885;DHT22;6510;51.362;7.370;2022-11-20T16:56:32;3.90;99.90
12885;DHT22;6510;51.362;7.370;2022-11-20T16:58:59;3.90;99.90
12885;DHT22;6510;51.362;7.370;2022-11-20T17:01:26;3.90;99.90
12885;DHT22;6510;51.362;7.370;2022-11-20T17:06:25;4.00;99.90
12885;DHT22;6510;51.362;7.370;2022-11-20T17:08:52;4.00;99.90
12885;DHT22;6510;51.362;7.370;2022-11-20T17:11:18;4.00;99.90
12885;DHT22;6510;51.362;7.370;2022-11-20T17:13:45;4.00;99.90
12885;DHT22;6510;51.362;7.370;2022-11-20T17:16:14;4.00;99.90
12885;DHT22;6510;51.362;7.370;2022-11-20T17:18:40;4.00;99.90
12885;DHT22;6510;51.362;7.370;2022-11-20T17:21:06;4.00;99.90
12885;DHT22;6510;51.362;7.370;2022-11-20T17:23:38;4.00;99.90
12885;DHT22;6510;51.362;7.370;2022-11-20T17:26:06;4.00;99.90
12885;DHT22;6510;51.362;7.370;2022-11-20T17:28:32;4.00;99.90
12885;DHT22;6510;51.362;7.370;2022-11-20T17:31:00;4.00;99.90
12885;DHT22;6510;51.362;7.370;2022-11-20T17:33:26;4.00;99.90
12885;DHT22;6510;51.362;7.370;2022-11-20T17:35:52;4.00;99.90
12885;DHT22;6510;51.362;7.370;2022-11-20T17:38:17;4.00;99.90
12885;DHT22;6510;51.362;7.370;2022-11-20T17:40:45;4.00;99.90
12885;DHT22;6510;51.362;7.370;2022-11-20T17:43:11;4.00;99.90
12885;DHT22;6510;51.362;7.370;2022-11-20T17:45:37;4.00;99.90
12885;DHT22;6510;51.362;7.370;2022-11-20T17:48:03;4.00;99.90